createdAt,value
2024-05-09T00:00:36.335Z,3.55
2024-05-09T00:03:08.050Z,3.03
2024-05-09T00:05:36.371Z,3.05
2024-05-09T00:08:03.942Z,3.05
2024-05-09T00:10:36.340Z,3.10
2024-05-09T00:13:06.374Z,3.20
2024-05-09T00:15:34.086Z,3.03
2024-05-09T00:18:01.735Z,3.35
2024-05-09T00:20:36.844Z,2.72
2024-05-09T00:23:12.070Z,3.42
2024-05-09T00:25:39.828Z,2.92
2024-05-09T00:28:06.802Z,3.30
2024-05-09T00:30:36.161Z,2.95
2024-05-09T00:33:06.209Z,3.30
2024-05-09T00:35:34.707Z,3.15
2024-05-09T00:38:01.569Z,3.03
2024-05-09T00:40:39.052Z,3.03
2024-05-09T00:43:08.601Z,3.20
2024-05-09T00:45:35.993Z,3.33
2024-05-09T00:48:07.978Z,3.45
2024-05-09T00:50:38.822Z,3.30
2024-05-09T00:53:07.904Z,3.47
2024-05-09T00:55:36.169Z,3.22
2024-05-09T00:58:03.699Z,3.22
2024-05-09T01:00:37.924Z,2.88
2024-05-09T01:03:07.306Z,3.10
2024-05-09T01:05:35.034Z,3.55
2024-05-09T01:08:02.728Z,3.60
2024-05-09T01:10:34.434Z,3.30
2024-05-09T01:13:07.162Z,3.33
2024-05-09T01:15:34.896Z,3.15
2024-05-09T01:18:07.157Z,3.38
2024-05-09T01:23:11.188Z,3.05
2024-05-09T01:25:38.346Z,3.17
2024-05-09T01:28:05.869Z,3.60
2024-05-09T01:30:35.701Z,3.47
2024-05-09T01:33:06.284Z,3.13
2024-05-09T01:35:34.708Z,2.97
2024-05-09T01:38:01.558Z,3.20
2024-05-09T01:40:37.020Z,3.50
2024-05-09T01:43:06.974Z,3.90
2024-05-09T01:45:33.727Z,3.22
2024-05-09T01:48:01.022Z,3.25
2024-05-09T01:50:37.672Z,3.45
2024-05-09T01:53:12.008Z,2.97
2024-05-09T01:55:39.218Z,2.97
2024-05-09T01:58:06.156Z,3.05
2024-05-09T02:00:39.244Z,3.47
2024-05-09T02:03:10.793Z,2.88
2024-05-09T02:05:39.777Z,3.55
2024-05-09T02:08:07.050Z,3.75
2024-05-09T02:10:33.858Z,3.85
2024-05-09T02:13:01.065Z,3.70
2024-05-09T02:15:27.948Z,3.75
2024-05-09T02:17:55.414Z,3.40
2024-05-09T02:20:30.576Z,2.92
2024-05-09T02:23:04.473Z,3.65
2024-05-09T02:25:32.434Z,3.85
2024-05-09T02:27:59.456Z,3.88
2024-05-09T02:30:35.907Z,4.00
2024-05-09T02:33:07.781Z,3.72
2024-05-09T02:35:35.088Z,3.83
2024-05-09T02:38:02.060Z,4.07
2024-05-09T02:40:36.650Z,3.92
2024-05-09T02:43:06.649Z,3.88
2024-05-09T02:45:33.710Z,4.47
2024-05-09T02:48:01.571Z,4.65
2024-05-09T02:50:37.080Z,4.05
2024-05-09T02:53:10.877Z,4.10
2024-05-09T02:55:41.725Z,4.47
2024-05-09T02:58:09.231Z,4.22
2024-05-09T03:00:39.901Z,4.32
2024-05-09T03:03:11.119Z,4.28
2024-05-09T03:05:40.799Z,4.15
2024-05-09T03:08:07.975Z,4.43
2024-05-09T03:10:37.038Z,3.90
2024-05-09T03:13:14.434Z,3.85
2024-05-09T03:15:42.992Z,4.47
2024-05-09T03:18:10.136Z,4.30
2024-05-09T03:20:38.060Z,4.25
2024-05-09T03:23:08.122Z,4.25
2024-05-09T03:25:36.106Z,3.88
2024-05-09T03:28:02.846Z,4.40
2024-05-09T03:30:38.934Z,4.22
2024-05-09T03:33:20.081Z,3.85
2024-05-09T03:35:48.380Z,3.50
2024-05-09T03:38:15.629Z,3.63
2024-05-09T03:40:47.032Z,3.80
2024-05-09T03:43:14.435Z,3.67
2024-05-09T03:45:42.507Z,3.95
2024-05-09T03:48:09.320Z,3.92
2024-05-09T03:50:38.871Z,3.35
2024-05-09T03:53:06.397Z,3.72
2024-05-09T03:55:33.268Z,3.53
2024-05-09T03:57:59.989Z,3.83
2024-05-09T04:00:35.086Z,3.45
2024-05-09T04:03:07.700Z,3.47
2024-05-09T04:05:38.020Z,3.45
2024-05-09T04:08:05.485Z,3.88
2024-05-09T04:10:34.219Z,3.75
2024-05-09T04:13:03.045Z,3.58
2024-05-09T04:15:30.147Z,3.80
2024-05-09T04:17:56.989Z,4.20
2024-05-09T04:20:35.562Z,4.35
2024-05-09T04:23:07.295Z,3.58
2024-05-09T04:25:35.002Z,3.75
2024-05-09T04:28:01.718Z,3.78
2024-05-09T04:30:37.154Z,4.10
2024-05-09T04:33:08.852Z,3.83
2024-05-09T04:35:37.710Z,4.43
2024-05-09T04:38:05.523Z,4.30
2024-05-09T04:40:35.561Z,3.75
2024-05-09T04:43:13.610Z,4.38
2024-05-09T04:45:40.937Z,4.57
2024-05-09T04:48:08.192Z,4.25
2024-05-09T04:50:38.316Z,4.65
2024-05-09T04:53:09.010Z,4.18
2024-05-09T04:55:37.222Z,4.68
2024-05-09T04:58:04.063Z,4.38
2024-05-09T05:00:36.382Z,4.50
2024-05-09T05:03:07.464Z,4.63
2024-05-09T05:05:38.198Z,4.72
2024-05-09T05:08:05.746Z,4.97
2024-05-09T05:10:36.223Z,5.10
2024-05-09T05:13:18.194Z,4.55
2024-05-09T05:15:58.692Z,4.60
2024-05-09T05:18:29.381Z,4.78
2024-05-09T05:20:57.086Z,5.13
2024-05-09T05:23:24.542Z,5.03
2024-05-09T05:25:55.584Z,4.70
2024-05-09T05:28:22.598Z,4.57
2024-05-09T05:30:49.530Z,4.70
2024-05-09T05:33:19.918Z,5.03
2024-05-09T05:35:47.283Z,5.03
2024-05-09T05:38:14.193Z,4.50
2024-05-09T05:40:41.379Z,4.70
2024-05-09T05:43:10.427Z,4.93
2024-05-09T05:45:37.915Z,4.28
2024-05-09T05:48:07.096Z,4.97
2024-05-09T05:50:37.371Z,4.50
2024-05-09T05:53:10.073Z,5.30
2024-05-09T05:55:41.341Z,5.00
2024-05-09T05:58:11.835Z,4.80
2024-05-09T06:00:40.946Z,5.80
2024-05-09T06:03:09.595Z,5.43
2024-05-09T06:05:39.628Z,5.95
2024-05-09T06:08:07.135Z,5.40
2024-05-09T06:10:38.723Z,5.70
2024-05-09T06:13:08.267Z,5.13
2024-05-09T06:15:35.087Z,5.88
2024-05-09T06:18:02.194Z,7.38
2024-05-09T06:20:35.736Z,7.25
2024-05-09T06:23:08.038Z,6.75
2024-05-09T06:25:36.072Z,7.30
2024-05-09T06:28:03.524Z,8.32
2024-05-09T06:30:37.860Z,8.00
2024-05-09T06:33:09.240Z,7.25
2024-05-09T06:35:37.453Z,7.80
2024-05-09T06:38:04.571Z,7.97
2024-05-09T06:40:37.373Z,7.05
2024-05-09T06:43:20.122Z,7.55
2024-05-09T06:45:54.178Z,7.75
2024-05-09T06:48:22.063Z,6.82
2024-05-09T06:50:49.832Z,8.48
2024-05-09T06:53:17.404Z,8.20
2024-05-09T06:55:44.329Z,9.05
2024-05-09T06:58:10.982Z,9.02
2024-05-09T07:00:40.499Z,8.43
2024-05-09T07:03:17.824Z,8.60
2024-05-09T07:05:47.806Z,7.47
2024-05-09T07:08:15.849Z,7.53
2024-05-09T07:10:42.919Z,8.05
2024-05-09T07:13:15.140Z,8.07
2024-05-09T07:15:42.944Z,7.00
2024-05-09T07:18:15.689Z,7.75
2024-05-09T07:20:43.382Z,6.97
2024-05-09T07:23:10.969Z,7.47
2024-05-09T07:25:38.353Z,7.60
2024-05-09T07:28:06.193Z,7.18
2024-05-09T07:30:34.563Z,7.00
2024-05-09T07:33:03.071Z,6.93
2024-05-09T07:35:30.894Z,7.63
2024-05-09T07:38:00.633Z,6.78
2024-05-09T07:40:35.019Z,7.03
2024-05-09T07:43:04.788Z,7.35
2024-05-09T07:45:48.117Z,7.65
2024-05-09T07:52:38.547Z,6.18
2024-05-09T07:53:46.559Z,5.70
2024-05-09T07:56:16.849Z,7.03
2024-05-09T07:58:46.075Z,6.90
2024-05-09T08:01:12.971Z,6.43
2024-05-09T08:03:39.980Z,7.07
2024-05-09T08:06:06.698Z,6.90
2024-05-09T08:08:33.417Z,6.47
2024-05-09T08:11:02.225Z,6.63
2024-05-09T08:13:28.960Z,5.72
2024-05-09T08:15:55.637Z,5.80
2024-05-09T08:18:22.440Z,5.18
2024-05-09T08:20:52.066Z,5.05
2024-05-09T08:23:18.837Z,5.30
2024-05-09T08:25:45.665Z,6.22
2024-05-09T08:28:12.962Z,5.68
2024-05-09T08:30:39.968Z,7.10
2024-05-09T08:33:07.774Z,6.80
2024-05-09T08:35:36.127Z,6.25
2024-05-09T08:38:04.496Z,6.63
2024-05-09T08:40:35.723Z,5.80
2024-05-09T08:43:07.947Z,6.80
2024-05-09T08:45:36.631Z,6.72
2024-05-09T08:48:08.038Z,5.65
2024-05-09T08:50:39.219Z,6.32
2024-05-09T08:55:34.051Z,5.60
2024-05-09T08:58:05.626Z,6.07
2024-05-09T09:00:38.961Z,5.80
2024-05-09T09:03:09.435Z,6.25
2024-05-09T09:05:39.704Z,6.38
2024-05-09T09:08:08.817Z,5.40
2024-05-09T09:10:35.899Z,6.35
2024-05-09T09:13:09.575Z,5.93
2024-05-09T09:15:50.250Z,6.07
2024-05-09T09:18:17.832Z,5.95
2024-05-09T09:20:45.564Z,6.57
2024-05-09T09:23:14.045Z,6.07
2024-05-09T09:25:41.094Z,5.57
2024-05-09T09:28:08.974Z,5.53
2024-05-09T09:30:42.453Z,6.05
2024-05-09T09:33:10.455Z,6.30
2024-05-09T09:35:40.081Z,6.38
2024-05-09T09:38:07.796Z,7.00
2024-05-09T09:40:40.917Z,6.60
2024-05-09T09:43:15.267Z,5.80
2024-05-09T09:45:44.165Z,6.20
2024-05-09T09:48:14.655Z,5.72
2024-05-09T09:50:42.137Z,5.93
2024-05-09T09:53:10.337Z,6.20
2024-05-09T09:55:38.075Z,6.30
2024-05-09T09:58:06.467Z,6.78
2024-05-09T10:00:34.679Z,6.40
2024-05-09T10:03:02.233Z,6.63
2024-05-09T10:05:30.301Z,6.78
2024-05-09T10:07:58.939Z,6.78
2024-05-09T10:10:31.654Z,6.28
2024-05-09T10:13:01.183Z,6.53
2024-05-09T10:15:28.137Z,6.55
2024-05-09T10:18:04.557Z,5.88
2024-05-09T10:20:44.947Z,6.45
2024-05-09T10:23:28.981Z,7.43
2024-05-09T10:25:59.960Z,6.40
2024-05-09T10:28:31.653Z,6.90
2024-05-09T10:33:51.025Z,6.25
2024-05-09T10:36:23.029Z,7.45
2024-05-09T10:38:50.734Z,6.57
2024-05-09T10:41:18.285Z,6.50
2024-05-09T10:43:44.958Z,6.20
2024-05-09T10:46:12.066Z,6.40
2024-05-09T10:48:40.454Z,6.32
2024-05-09T10:51:08.337Z,6.72
2024-05-09T10:53:45.901Z,6.30
2024-05-09T10:56:16.222Z,6.60
2024-05-09T10:58:43.061Z,6.45
2024-05-09T11:01:10.909Z,6.15
2024-05-09T11:03:38.836Z,6.28
2024-05-09T11:06:06.658Z,6.57
2024-05-09T11:08:35.164Z,5.15
2024-05-09T11:11:06.738Z,7.70
2024-05-09T11:13:35.343Z,6.30
2024-05-09T11:16:02.957Z,7.13
2024-05-09T11:18:35.164Z,7.28
2024-05-09T11:21:13.138Z,6.50
2024-05-09T11:23:40.573Z,6.00
2024-05-09T11:26:07.528Z,6.68
2024-05-09T11:28:34.334Z,6.53
2024-05-09T11:31:09.635Z,6.40
2024-05-09T11:33:39.157Z,6.55
2024-05-09T11:36:07.373Z,6.53
2024-05-09T11:38:34.275Z,5.90
2024-05-09T11:41:02.113Z,7.18
2024-05-09T11:43:29.001Z,7.20
2024-05-09T11:45:57.844Z,7.28
2024-05-09T11:48:25.463Z,7.85
2024-05-09T11:50:52.787Z,7.65
2024-05-09T11:53:19.646Z,6.60
2024-05-09T11:55:46.429Z,6.80
2024-05-09T11:58:15.109Z,6.43
2024-05-09T12:00:41.838Z,6.78
2024-05-09T12:03:08.569Z,6.53
2024-05-09T12:05:35.397Z,6.85
2024-05-09T12:08:02.501Z,7.47
2024-05-09T12:10:33.811Z,7.43
2024-05-09T12:13:04.806Z,7.13
2024-05-09T12:15:33.324Z,7.13
2024-05-09T12:18:02.524Z,7.53
2024-05-09T12:20:36.602Z,6.72
2024-05-09T12:23:05.908Z,6.50
2024-05-09T12:25:32.595Z,7.68
2024-05-09T12:27:59.572Z,8.43
2024-05-09T12:30:35.361Z,6.75
2024-05-09T12:33:06.331Z,6.55
2024-05-09T12:35:33.259Z,6.82
2024-05-09T12:38:00.116Z,6.45
2024-05-09T12:40:34.824Z,6.57
2024-05-09T12:43:05.248Z,6.95
2024-05-09T12:45:32.482Z,7.30
2024-05-09T12:47:59.600Z,6.47
2024-05-09T12:50:32.368Z,6.40
2024-05-09T12:53:01.840Z,6.57
2024-05-09T12:55:33.526Z,6.47
2024-05-09T12:58:07.106Z,6.68
2024-05-09T13:00:34.584Z,6.88
2024-05-09T13:03:01.693Z,6.40
2024-05-09T13:05:29.061Z,7.65
2024-05-09T13:07:56.854Z,7.05
2024-05-09T13:10:31.040Z,6.65
2024-05-09T13:13:00.272Z,5.75
2024-05-09T13:15:27.490Z,5.78
2024-05-09T13:17:56.488Z,6.63
2024-05-09T13:20:31.635Z,6.35
2024-05-09T13:23:02.255Z,6.70
2024-05-09T13:25:28.976Z,6.95
2024-05-09T13:27:56.834Z,5.60
2024-05-09T13:30:29.830Z,6.45
2024-05-09T13:33:06.113Z,5.70
2024-05-09T13:35:35.225Z,5.75
2024-05-09T13:38:02.899Z,5.60
2024-05-09T13:40:34.131Z,6.43
2024-05-09T13:43:05.794Z,5.97
2024-05-09T13:45:33.279Z,6.30
2024-05-09T13:48:00.952Z,6.50
2024-05-09T13:50:33.903Z,7.80
2024-05-09T13:53:05.424Z,6.95
2024-05-09T13:55:33.153Z,7.05
2024-05-09T13:58:00.599Z,6.97
2024-05-09T14:00:38.429Z,7.03
2024-05-09T14:03:11.710Z,7.05
2024-05-09T14:05:39.049Z,6.60
2024-05-09T14:08:07.109Z,6.75
2024-05-09T14:10:33.902Z,5.43
2024-05-09T14:13:01.368Z,6.22
2024-05-09T14:15:28.305Z,6.97
2024-05-09T14:17:55.708Z,6.88
2024-05-09T14:20:30.578Z,6.35
2024-05-09T14:22:59.659Z,6.50
2024-05-09T14:25:30.502Z,7.38
2024-05-09T14:27:59.785Z,6.93
2024-05-09T14:30:34.547Z,6.57
2024-05-09T14:33:06.395Z,6.00
2024-05-09T14:35:34.082Z,5.95
2024-05-09T14:38:01.184Z,7.18
2024-05-09T14:40:38.759Z,6.40
2024-05-09T14:43:14.760Z,6.55
2024-05-09T14:45:42.111Z,6.95
2024-05-09T14:48:09.943Z,6.63
2024-05-09T14:50:39.423Z,7.03
2024-05-09T14:53:08.472Z,6.95
2024-05-09T14:55:37.471Z,7.80
2024-05-09T14:58:09.007Z,7.25
2024-05-09T15:00:41.251Z,7.18
2024-05-09T15:03:11.275Z,7.05
2024-05-09T15:05:38.081Z,7.03
2024-05-09T15:08:08.615Z,7.78
2024-05-09T15:10:37.017Z,7.32
2024-05-09T15:13:05.848Z,9.60
2024-05-09T15:15:33.720Z,8.85
2024-05-09T15:18:00.542Z,7.22
2024-05-09T15:20:34.240Z,7.65
2024-05-09T15:23:04.484Z,7.18
2024-05-09T15:25:31.247Z,7.90
2024-05-09T15:27:58.166Z,8.63
2024-05-09T15:30:30.941Z,8.80
2024-05-09T15:33:00.745Z,7.55
2024-05-09T15:35:27.716Z,7.25
2024-05-09T15:37:54.540Z,9.48
2024-05-09T15:40:30.781Z,8.38
2024-05-09T15:43:04.854Z,8.90
2024-05-09T15:45:32.234Z,8.65
2024-05-09T15:47:59.624Z,8.63
2024-05-09T15:50:36.236Z,8.32
2024-05-09T15:53:07.243Z,8.43
2024-05-09T15:55:34.933Z,8.73
2024-05-09T15:58:02.882Z,7.60
2024-05-09T16:00:37.445Z,9.20
2024-05-09T16:03:08.053Z,8.57
2024-05-09T16:05:35.175Z,7.85
2024-05-09T16:08:02.589Z,8.93
2024-05-09T16:10:33.018Z,8.65
2024-05-09T16:15:29.212Z,9.27
2024-05-09T16:17:56.263Z,8.73
2024-05-09T16:20:34.272Z,8.77
2024-05-09T16:23:06.513Z,9.57
2024-05-09T16:25:33.432Z,10.15
2024-05-09T16:28:00.490Z,9.75
2024-05-09T16:30:34.286Z,9.73
2024-05-09T16:33:04.055Z,9.13
2024-05-09T16:35:31.648Z,9.82
2024-05-09T16:37:58.363Z,8.95
2024-05-09T16:40:34.103Z,9.85
2024-05-09T16:43:05.761Z,8.38
2024-05-09T16:45:33.359Z,10.63
2024-05-09T16:48:01.615Z,10.65
2024-05-09T16:50:32.812Z,9.88
2024-05-09T16:53:01.982Z,10.27
2024-05-09T16:55:29.066Z,9.25
2024-05-09T16:57:57.154Z,8.43
2024-05-09T17:00:35.199Z,8.45
2024-05-09T17:03:10.171Z,9.90
2024-05-09T17:05:37.917Z,8.00
2024-05-09T17:08:06.246Z,9.63
2024-05-09T17:10:34.962Z,8.82
2024-05-09T17:13:07.348Z,10.25
2024-05-09T17:15:35.947Z,8.95
2024-05-09T17:18:04.086Z,9.98
2024-05-09T17:20:34.640Z,10.77
2024-05-09T17:23:04.960Z,10.07
2024-05-09T17:25:32.465Z,9.23
2024-05-09T17:28:06.442Z,8.68
2024-05-09T17:30:36.981Z,8.02
2024-05-09T17:35:33.208Z,8.52
2024-05-09T17:38:01.825Z,8.50
2024-05-09T17:40:33.597Z,8.63
2024-05-09T17:43:03.733Z,8.60
2024-05-09T17:45:31.084Z,9.75
2024-05-09T17:47:58.392Z,8.52
2024-05-09T17:50:31.495Z,8.43
2024-05-09T17:53:02.352Z,7.97
2024-05-09T17:55:29.544Z,7.85
2024-05-09T17:57:56.737Z,7.97
2024-05-09T18:00:35.700Z,7.15
2024-05-09T18:03:06.456Z,6.78
2024-05-09T18:05:36.178Z,6.43
2024-05-09T18:08:03.733Z,7.50
2024-05-09T18:10:36.437Z,6.20
2024-05-09T18:13:06.527Z,6.13
2024-05-09T18:15:35.003Z,6.85
2024-05-09T18:18:03.374Z,6.85
2024-05-09T18:20:39.348Z,6.50
2024-05-09T18:23:10.977Z,7.13
2024-05-09T18:25:37.739Z,6.78
2024-05-09T18:28:05.652Z,6.95
2024-05-09T18:30:35.569Z,8.10
2024-05-09T18:33:08.154Z,6.53
2024-05-09T18:35:36.994Z,6.82
2024-05-09T18:38:04.948Z,6.80
2024-05-09T18:40:35.662Z,7.28
2024-05-09T18:43:06.852Z,6.45
2024-05-09T18:45:35.737Z,6.57
2024-05-09T18:48:05.760Z,6.05
2024-05-09T18:50:37.524Z,6.82
2024-05-09T18:53:06.760Z,6.68
2024-05-09T18:55:33.858Z,6.90
2024-05-09T18:58:00.700Z,6.53
2024-05-09T19:00:34.355Z,6.65
2024-05-09T19:03:05.841Z,7.00
2024-05-09T19:05:35.324Z,5.88
2024-05-09T19:08:02.883Z,6.60
2024-05-09T19:10:34.241Z,6.50
2024-05-09T19:13:06.511Z,6.07
2024-05-09T19:15:37.413Z,7.10
2024-05-09T19:18:04.663Z,6.35
2024-05-09T19:20:34.555Z,6.93
2024-05-09T19:23:02.800Z,6.85
2024-05-09T19:25:29.769Z,6.57
2024-05-09T19:27:56.613Z,6.30
2024-05-09T19:30:30.498Z,6.78
2024-05-09T19:33:05.858Z,6.57
2024-05-09T19:35:33.110Z,7.60
2024-05-09T19:38:00.252Z,6.70
2024-05-09T19:40:31.512Z,7.13
2024-05-09T19:43:01.723Z,6.35
2024-05-09T19:45:29.219Z,6.18
2024-05-09T19:47:56.401Z,7.35
2024-05-09T19:50:32.117Z,7.47
2024-05-09T19:53:06.760Z,7.32
2024-05-09T19:55:34.152Z,7.97
2024-05-09T19:58:05.154Z,7.43
2024-05-09T20:00:39.695Z,7.35
2024-05-09T20:03:09.858Z,7.15
2024-05-09T20:05:37.666Z,7.07
2024-05-09T20:08:05.681Z,7.57
2024-05-09T20:10:35.005Z,7.43
2024-05-09T20:13:03.784Z,7.57
2024-05-09T20:15:35.736Z,7.03
2024-05-09T20:18:02.791Z,7.28
2024-05-09T20:20:37.282Z,7.20
2024-05-09T20:23:08.485Z,7.50
2024-05-09T20:25:35.271Z,7.20
2024-05-09T20:28:02.183Z,6.90
2024-05-09T20:30:32.580Z,7.50
2024-05-09T20:33:02.899Z,7.05
2024-05-09T20:35:33.036Z,7.18
2024-05-09T20:38:01.153Z,6.88
2024-05-09T20:40:32.890Z,7.13
2024-05-09T20:43:03.430Z,6.90
2024-05-09T20:45:30.143Z,7.20
2024-05-09T20:47:57.551Z,6.68
2024-05-09T20:50:35.387Z,7.35
2024-05-09T20:53:07.364Z,6.88
2024-05-09T20:55:34.151Z,7.57
2024-05-09T20:58:00.892Z,7.82
2024-05-09T21:00:35.405Z,7.60
2024-05-09T21:03:07.341Z,7.50
2024-05-09T21:05:35.136Z,8.35
2024-05-09T21:08:02.365Z,8.05
2024-05-09T21:10:32.948Z,7.15
2024-05-09T21:13:02.243Z,8.15
2024-05-09T21:15:29.949Z,7.65
2024-05-09T21:17:56.694Z,7.88
2024-05-09T21:20:28.907Z,8.05
2024-05-09T21:22:58.679Z,7.53
2024-05-09T21:25:25.723Z,7.72
2024-05-09T21:27:52.672Z,8.90
2024-05-09T21:30:31.280Z,8.38
2024-05-09T21:33:06.036Z,8.68
2024-05-09T21:35:32.913Z,8.32
2024-05-09T21:37:59.655Z,9.43
2024-05-09T21:40:33.444Z,8.80
2024-05-09T21:43:02.412Z,9.07
2024-05-09T21:45:32.604Z,8.55
2024-05-09T21:47:59.614Z,9.57
2024-05-09T21:50:36.112Z,8.43
2024-05-09T21:53:07.234Z,8.65
2024-05-09T21:55:34.342Z,8.50
2024-05-09T21:58:01.311Z,8.90
2024-05-09T22:00:35.519Z,9.18
2024-05-09T22:03:05.618Z,8.88
2024-05-09T22:05:32.763Z,8.98
2024-05-09T22:07:59.616Z,9.18
2024-05-09T22:10:32.820Z,9.27
2024-05-09T22:13:02.058Z,9.70
2024-05-09T22:15:28.918Z,9.23
2024-05-09T22:17:56.852Z,9.63
2024-05-09T22:20:32.940Z,9.65
2024-05-09T22:23:04.300Z,10.07
2024-05-09T22:25:32.182Z,10.00
2024-05-09T22:27:59.929Z,9.95
2024-05-09T22:30:34.971Z,10.18
2024-05-09T22:33:06.161Z,10.57
2024-05-09T22:35:33.195Z,10.15
2024-05-09T22:38:00.089Z,9.48
2024-05-09T22:40:38.274Z,10.38
2024-05-09T22:43:13.236Z,9.68
2024-05-09T22:45:40.244Z,10.35
2024-05-09T22:48:08.713Z,9.75
2024-05-09T22:50:35.757Z,9.70
2024-05-09T22:53:02.608Z,9.73
2024-05-09T22:55:29.422Z,9.70
2024-05-09T22:57:56.419Z,10.48
2024-05-09T23:00:31.331Z,9.68
2024-05-09T23:03:03.114Z,9.82
2024-05-09T23:05:32.322Z,9.98
2024-05-09T23:08:01.410Z,9.32
2024-05-09T23:10:35.238Z,8.70
2024-05-09T23:13:04.533Z,9.32
2024-05-09T23:15:31.655Z,9.40
2024-05-09T23:17:58.981Z,9.82
2024-05-09T23:20:33.531Z,9.07
2024-05-09T23:23:05.356Z,9.43
2024-05-09T23:25:32.076Z,9.52
2024-05-09T23:27:58.873Z,10.15
2024-05-09T23:30:34.062Z,8.73
2024-05-09T23:33:05.880Z,9.15
2024-05-09T23:35:32.970Z,9.40
2024-05-09T23:37:59.677Z,8.77
2024-05-09T23:40:37.114Z,9.50
2024-05-09T23:43:07.198Z,10.10
2024-05-09T23:45:34.485Z,9.43
2024-05-09T23:48:01.640Z,9.18
2024-05-09T23:50:35.776Z,9.82
2024-05-09T23:53:06.304Z,9.30
2024-05-09T23:55:33.948Z,9.15
2024-05-09T23:58:00.902Z,9.55
